Main page
METAR-TAF:

METAR-TAF

Airports :

Ioannina National Airport

Ioannina, Greece

latitude: 39-41-47N, longitude: 20-49-21E, elevation: 475 m

Current weather observation

The report was made 38 minutes ago, at 16:20 UTC
Temperature 25°C
Humidity 61%
Pressure 1012 hPa
Visibility 10 km or more
Few clouds at a height of 3500 ft

METAR: LGIO 151620Z /////KT 9999 FEW035 25/17 Q1012

Time: 19:58 (16:58 UTC)

Forecast

The report was made 2 hours and 58 minutes ago, at 14:00 UTC
Forecast valid from 15 at 15 UTC to 15 at 24 UTC
Wind 3 kt from variable directions
Visibility 10 km or more
Few clouds at a height of 2500 ft
Scattered clouds at a height of 8000 ft
Probability 40% :
Temporary
from 15 at 15 UTC to 15 at 24 UTC
Visibility: 4000 m
Few clouds at a height of 1500 ft, Cumulonimbus.
Broken clouds at a height of 2500 ft
Broken clouds at a height of 8000 ft
thunderstorm, rain

TAF: LGIO 151400Z 1515/1524 VRB03KT 9999 FEW025 SCT080 PROB40 TEMPO 1515/1524 4000 TSRA FEW015CB BKN025 BKN080

Weather observations and forecasts of more than 4000 airports (METAR and TAF reports).

The available stations are represented by yellow and red dots on the map.

Hover mouse over dot to see the name of the station.

Then click to see weather observations and forecasts.

To change the map : click on the green buttons with a black cross to zoom in, on the green button with a dash to zoom out, or on the green arrows for adjacent maps.


METAR-TAF: